createdAt,value
2022-11-02T00:00:13.777Z,1.58
2022-11-02T00:02:15.493Z,0.98
2022-11-02T00:04:17.151Z,2.08
2022-11-02T00:06:18.743Z,1.60
2022-11-02T00:08:20.373Z,2.30
2022-11-02T00:10:23.307Z,1.42
2022-11-02T00:12:24.946Z,3.88
2022-11-02T00:14:26.541Z,5.50
2022-11-02T00:16:28.142Z,2.38
2022-11-02T00:18:29.930Z,1.00
2022-11-02T00:20:32.324Z,1.58
2022-11-02T00:22:34.184Z,3.55
2022-11-02T00:24:35.799Z,1.95
2022-11-02T00:26:37.602Z,5.28
2022-11-02T00:28:39.422Z,3.03
2022-11-02T00:30:41.211Z,0.75
2022-11-02T00:32:42.920Z,1.85
2022-11-02T00:34:44.522Z,2.08
2022-11-02T00:36:46.178Z,0.70
2022-11-02T00:38:47.761Z,2.35
2022-11-02T00:40:49.359Z,1.95
2022-11-02T00:42:50.998Z,1.67
2022-11-02T00:44:52.569Z,0.93
2022-11-02T00:46:54.225Z,1.20
2022-11-02T00:48:55.808Z,4.55
2022-11-02T00:50:57.484Z,1.83
2022-11-02T00:52:59.139Z,1.25
2022-11-02T00:55:00.826Z,1.08
2022-11-02T00:57:02.563Z,2.88
2022-11-02T00:59:04.319Z,2.20
2022-11-02T01:01:07.192Z,0.80
2022-11-02T01:03:08.893Z,3.22
2022-11-02T01:05:11.286Z,5.70
2022-11-02T01:07:12.921Z,0.82
2022-11-02T01:09:15.876Z,2.65
2022-11-02T01:11:19.932Z,6.13
2022-11-02T01:13:21.771Z,1.05
2022-11-02T01:15:23.407Z,5.75
2022-11-02T01:17:25.069Z,2.40
2022-11-02T01:19:26.958Z,4.80
2022-11-02T01:21:28.693Z,1.35
2022-11-02T01:23:34.827Z,1.23
2022-11-02T01:25:36.419Z,1.38
2022-11-02T01:27:38.619Z,2.10
2022-11-02T01:29:40.293Z,2.75
2022-11-02T01:31:41.981Z,2.67
2022-11-02T01:33:45.428Z,1.55
2022-11-02T01:35:47.107Z,2.63
2022-11-02T01:37:48.744Z,1.80
2022-11-02T01:39:50.357Z,1.75
2022-11-02T01:41:53.513Z,2.40
2022-11-02T01:43:59.105Z,1.30
2022-11-02T01:46:00.964Z,3.05
2022-11-02T01:48:02.953Z,2.67
2022-11-02T01:50:09.089Z,2.40
2022-11-02T01:52:17.917Z,2.78
2022-11-02T01:54:24.258Z,1.13
2022-11-02T01:56:30.207Z,1.75
2022-11-02T01:58:34.927Z,2.53
2022-11-02T02:00:38.619Z,2.40
2022-11-02T02:02:54.611Z,0.90
2022-11-02T02:05:03.333Z,5.03
2022-11-02T02:07:05.267Z,10.98
2022-11-02T02:09:07.904Z,1.90
2022-11-02T02:11:32.365Z,1.25
2022-11-02T02:13:33.967Z,3.85
2022-11-02T02:15:46.415Z,1.73
2022-11-02T02:17:53.715Z,1.40
2022-11-02T02:20:40.138Z,1.23
2022-11-02T02:22:44.385Z,1.50
2022-11-02T02:25:05.253Z,6.15
2022-11-02T02:27:32.823Z,1.30
2022-11-02T02:29:46.503Z,3.45
2022-11-02T02:32:15.587Z,1.30
2022-11-02T02:34:20.827Z,2.00
2022-11-02T02:36:24.851Z,0.93
2022-11-02T02:39:15.936Z,1.52
2022-11-02T02:41:38.178Z,1.38
2022-11-02T02:43:58.879Z,1.52
2022-11-02T02:46:09.471Z,4.45
2022-11-02T02:48:21.268Z,1.67
2022-11-02T02:50:28.012Z,2.22
2022-11-02T02:52:30.967Z,1.67
2022-11-02T02:54:36.464Z,2.90
2022-11-02T02:56:42.673Z,1.77
2022-11-02T02:58:50.738Z,2.40
2022-11-02T03:00:53.302Z,1.48
2022-11-02T03:03:01.569Z,2.67
2022-11-02T03:05:05.882Z,10.38
2022-11-02T03:07:09.146Z,0.80
2022-11-02T03:09:23.630Z,4.30
2022-11-02T03:11:25.570Z,2.03
2022-11-02T03:14:08.570Z,1.85
2022-11-02T03:16:50.483Z,1.10
2022-11-02T03:19:00.324Z,6.70
2022-11-02T03:21:50.349Z,1.92
2022-11-02T03:24:24.284Z,2.42
2022-11-02T03:26:33.791Z,2.45
2022-11-02T03:28:59.643Z,4.20
2022-11-02T03:31:36.577Z,4.30
2022-11-02T03:33:45.852Z,4.82
2022-11-02T03:35:57.194Z,3.50
2022-11-02T03:38:05.034Z,17.20
2022-11-02T03:40:25.010Z,12.40
2022-11-02T03:42:28.079Z,17.20
2022-11-02T03:44:30.585Z,3.30
2022-11-02T03:46:33.001Z,3.83
2022-11-02T03:48:41.145Z,2.15
2022-11-02T03:50:47.296Z,1.77
2022-11-02T03:52:52.615Z,0.98
2022-11-02T03:55:20.727Z,1.67
2022-11-02T03:57:28.891Z,13.25
2022-11-02T03:59:32.145Z,5.30
2022-11-02T04:01:39.293Z,2.30
2022-11-02T04:03:44.552Z,6.05
2022-11-02T04:05:46.166Z,1.90
2022-11-02T04:08:09.445Z,1.95
2022-11-02T04:10:11.031Z,3.08
2022-11-02T04:12:31.441Z,1.80
2022-11-02T04:14:39.112Z,1.35
2022-11-02T04:16:40.976Z,10.60
2022-11-02T04:19:02.400Z,6.25
2022-11-02T04:21:07.090Z,4.15
2022-11-02T04:23:27.290Z,4.97
2022-11-02T04:25:28.921Z,5.93
2022-11-02T04:27:30.545Z,6.93
2022-11-02T04:29:32.210Z,5.47
2022-11-02T04:31:33.864Z,0.90
2022-11-02T04:33:36.138Z,2.13
2022-11-02T04:35:38.071Z,4.93
2022-11-02T04:37:59.591Z,1.55
2022-11-02T04:40:01.178Z,2.35
2022-11-02T04:42:02.803Z,2.83
2022-11-02T04:44:05.095Z,3.47
2022-11-02T04:46:06.710Z,1.85
2022-11-02T04:48:09.716Z,3.22
2022-11-02T04:50:13.720Z,1.42
2022-11-02T04:52:15.393Z,3.28
2022-11-02T04:54:17.015Z,1.40
2022-11-02T04:56:18.663Z,4.38
2022-11-02T04:58:20.359Z,6.68
2022-11-02T05:00:22.628Z,4.38
2022-11-02T05:02:24.503Z,3.42
2022-11-02T05:04:26.437Z,3.63
2022-11-02T05:06:28.217Z,7.05
2022-11-02T05:08:29.850Z,6.75
2022-11-02T05:10:31.496Z,1.98
2022-11-02T05:12:33.167Z,1.95
2022-11-02T05:14:35.005Z,2.47
2022-11-02T05:16:36.650Z,2.10
2022-11-02T05:18:38.283Z,3.60
2022-11-02T05:20:39.933Z,1.45
2022-11-02T05:22:42.606Z,6.18
2022-11-02T05:24:44.294Z,1.58
2022-11-02T05:26:52.845Z,5.30
2022-11-02T05:28:55.679Z,5.07
2022-11-02T05:31:00.549Z,2.92
2022-11-02T05:33:03.346Z,1.63
2022-11-02T05:35:05.733Z,2.08
2022-11-02T05:37:07.409Z,1.98
2022-11-02T05:39:09.093Z,3.65
2022-11-02T05:41:11.035Z,1.80
2022-11-02T05:43:13.102Z,3.17
2022-11-02T05:45:14.698Z,1.77
2022-11-02T05:47:16.319Z,0.75
2022-11-02T05:49:17.973Z,1.50
2022-11-02T05:51:19.621Z,1.80
2022-11-02T05:53:21.240Z,8.05
2022-11-02T05:55:22.983Z,3.10
2022-11-02T05:57:24.862Z,2.65
2022-11-02T05:59:26.496Z,6.07
2022-11-02T06:01:28.211Z,1.20
2022-11-02T06:03:31.581Z,1.17
2022-11-02T06:05:33.829Z,6.32
2022-11-02T06:07:35.545Z,3.33
2022-11-02T06:09:37.321Z,11.38
2022-11-02T06:11:39.001Z,4.22
2022-11-02T06:13:41.993Z,2.08
2022-11-02T06:15:43.717Z,1.90
2022-11-02T06:17:54.770Z,1.25
2022-11-02T06:19:56.275Z,2.03
2022-11-02T06:21:57.723Z,12.48
2022-11-02T06:23:59.697Z,2.47
2022-11-02T06:26:01.600Z,1.25
2022-11-02T06:28:03.126Z,1.45
2022-11-02T06:30:05.823Z,5.47
2022-11-02T06:32:25.449Z,5.93
2022-11-02T06:34:45.769Z,8.25
2022-11-02T06:36:47.348Z,12.40
2022-11-02T06:38:48.796Z,7.07
2022-11-02T06:41:09.207Z,4.68
2022-11-02T06:43:17.598Z,2.85
2022-11-02T06:45:39.862Z,4.95
2022-11-02T06:47:47.669Z,2.13
2022-11-02T06:49:51.955Z,2.42
2022-11-02T06:52:02.087Z,3.55
2022-11-02T06:54:08.497Z,2.85
2022-11-02T06:56:30.578Z,1.70
2022-11-02T06:58:46.027Z,5.82
2022-11-02T07:00:55.852Z,2.80
2022-11-02T07:03:07.625Z,4.10
2022-11-02T07:05:13.794Z,1.95
2022-11-02T07:07:16.423Z,1.58
2022-11-02T07:09:18.460Z,2.20
2022-11-02T07:11:24.699Z,1.75
2022-11-02T07:13:26.262Z,2.08
2022-11-02T07:15:30.992Z,2.13
2022-11-02T07:17:41.783Z,1.65
2022-11-02T07:19:47.240Z,1.67
2022-11-02T07:21:48.780Z,3.13
2022-11-02T07:23:50.754Z,3.97
2022-11-02T07:25:54.245Z,2.83
2022-11-02T07:27:56.100Z,1.77
2022-11-02T07:30:05.133Z,4.55
2022-11-02T07:32:08.984Z,5.07
2022-11-02T07:34:16.507Z,8.77
2022-11-02T07:36:18.610Z,2.92
2022-11-02T07:38:27.771Z,3.95
2022-11-02T07:40:30.319Z,2.88
2022-11-02T07:42:34.275Z,2.10
2022-11-02T07:44:35.877Z,1.48
2022-11-02T07:46:37.325Z,4.55
2022-11-02T07:48:40.253Z,2.42
2022-11-02T07:50:41.849Z,1.42
2022-11-02T07:52:57.644Z,8.38
2022-11-02T07:54:59.085Z,3.60
2022-11-02T07:57:07.100Z,2.10
2022-11-02T07:59:13.089Z,2.33
2022-11-02T08:01:23.415Z,2.15
2022-11-02T08:03:25.228Z,0.88
2022-11-02T08:05:34.337Z,7.10
2022-11-02T08:07:49.500Z,2.83
2022-11-02T08:09:51.046Z,4.43
2022-11-02T08:11:52.629Z,3.03
2022-11-02T08:13:54.488Z,3.55
2022-11-02T08:15:56.189Z,2.95
2022-11-02T08:18:21.466Z,1.17
2022-11-02T08:20:22.993Z,0.80
2022-11-02T08:22:46.976Z,0.73
2022-11-02T08:24:48.513Z,1.40
2022-11-02T08:27:10.230Z,3.13
2022-11-02T08:29:34.239Z,4.00
2022-11-02T08:31:52.837Z,3.45
2022-11-02T08:34:22.750Z,3.35
2022-11-02T08:36:45.118Z,1.00
2022-11-02T08:38:44.807Z,3.95
2022-11-02T08:40:46.492Z,4.72
2022-11-02T08:42:55.583Z,3.83
2022-11-02T08:45:08.306Z,5.40
2022-11-02T08:47:32.787Z,4.38
2022-11-02T08:49:52.388Z,2.47
2022-11-02T08:52:14.750Z,4.63
2022-11-02T08:54:21.460Z,2.75
2022-11-02T08:56:23.269Z,2.83
2022-11-02T08:58:27.667Z,2.72
2022-11-02T09:00:41.728Z,6.18
2022-11-02T09:03:10.158Z,2.72
2022-11-02T09:05:36.032Z,3.30
2022-11-02T09:09:56.680Z,1.92
2022-11-02T09:11:58.325Z,3.35
2022-11-02T09:14:00.206Z,5.13
2022-11-02T09:16:02.927Z,9.60
2022-11-02T09:18:06.798Z,1.92
2022-11-02T09:20:08.965Z,1.67
2022-11-02T09:22:10.723Z,4.47
2022-11-02T09:24:12.382Z,2.85
2022-11-02T09:26:15.036Z,1.38
2022-11-02T09:28:16.807Z,8.82
2022-11-02T09:30:26.765Z,2.35
2022-11-02T09:32:30.119Z,3.05
2022-11-02T09:34:31.778Z,5.97
2022-11-02T09:36:34.153Z,6.63
2022-11-02T09:38:35.876Z,1.50
2022-11-02T09:40:43.027Z,2.20
2022-11-02T09:42:55.554Z,1.23
2022-11-02T09:45:00.812Z,4.30
2022-11-02T09:49:35.244Z,3.00
2022-11-02T09:51:40.097Z,2.55
2022-11-02T09:53:59.602Z,2.88
2022-11-02T09:56:02.491Z,2.08
2022-11-02T09:58:10.632Z,9.48
2022-11-02T10:00:20.700Z,5.07
2022-11-02T10:02:28.052Z,1.52
2022-11-02T10:04:41.907Z,1.90
2022-11-02T10:06:51.264Z,4.55
2022-11-02T10:09:41.219Z,3.30
2022-11-02T10:11:48.358Z,2.65
2022-11-02T10:14:05.960Z,4.95
2022-11-02T10:16:13.808Z,8.82
2022-11-02T10:18:20.060Z,3.70
2022-11-02T10:20:51.782Z,2.80
2022-11-02T10:22:57.381Z,4.13
2022-11-02T10:25:00.910Z,3.65
2022-11-02T10:27:07.925Z,3.47
2022-11-02T10:30:05.884Z,2.38
2022-11-02T10:32:13.563Z,4.00
2022-11-02T10:34:25.753Z,2.15
2022-11-02T10:36:51.628Z,2.72
2022-11-02T10:39:15.544Z,0.80
2022-11-02T10:41:35.767Z,5.43
2022-11-02T10:44:06.343Z,3.20
2022-11-02T10:46:19.806Z,3.08
2022-11-02T10:48:58.580Z,2.58
2022-11-02T10:51:13.222Z,2.20
2022-11-02T10:53:40.235Z,1.92
2022-11-02T10:55:56.506Z,3.85
2022-11-02T10:58:00.095Z,8.88
2022-11-02T11:00:31.416Z,2.03
2022-11-02T11:02:33.133Z,3.22
2022-11-02T11:04:34.912Z,1.58
2022-11-02T11:06:41.252Z,0.85
2022-11-02T11:08:47.106Z,2.55
2022-11-02T11:10:48.892Z,4.05
2022-11-02T11:12:50.731Z,3.38
2022-11-02T11:19:54.512Z,3.03
2022-11-02T11:21:56.502Z,3.30
2022-11-02T11:24:22.438Z,1.50
2022-11-02T11:26:28.737Z,1.70
2022-11-02T11:28:33.770Z,3.92
2022-11-02T11:33:00.662Z,2.25
2022-11-02T11:35:05.877Z,2.30
2022-11-02T11:37:12.335Z,1.25
2022-11-02T11:39:30.615Z,4.75
2022-11-02T11:41:33.418Z,9.52
2022-11-02T11:43:40.954Z,1.10
2022-11-02T11:45:54.821Z,2.17
2022-11-02T11:48:25.761Z,2.92
2022-11-02T11:50:28.606Z,2.28
2022-11-02T11:52:33.029Z,1.83
2022-11-02T11:54:34.937Z,2.38
2022-11-02T11:56:36.569Z,1.48
2022-11-02T11:58:38.405Z,0.88
2022-11-02T12:00:40.091Z,2.80
2022-11-02T12:02:44.663Z,1.92
2022-11-02T12:04:46.881Z,0.85
2022-11-02T12:07:16.656Z,3.13
2022-11-02T12:09:32.032Z,2.20
2022-11-02T12:11:39.767Z,1.48
2022-11-02T12:13:50.715Z,3.95
2022-11-02T12:15:58.797Z,3.75
2022-11-02T12:18:15.877Z,1.45
2022-11-02T12:20:36.851Z,2.08
2022-11-02T12:23:00.311Z,3.17
2022-11-02T12:25:17.460Z,3.25
2022-11-02T12:27:31.546Z,2.50
2022-11-02T12:30:04.627Z,1.48
2022-11-02T12:32:43.504Z,2.47
2022-11-02T12:35:27.966Z,1.50
2022-11-02T12:38:01.792Z,2.03
2022-11-02T12:40:18.415Z,1.92
2022-11-02T12:42:31.298Z,2.17
2022-11-02T12:44:47.420Z,1.63
2022-11-02T12:46:56.990Z,5.95
2022-11-02T12:49:09.747Z,1.58
2022-11-02T12:51:22.389Z,1.63
2022-11-02T12:53:49.654Z,1.48
2022-11-02T12:55:53.814Z,2.60
2022-11-02T12:58:05.474Z,2.72
2022-11-02T13:00:17.968Z,2.08
2022-11-02T13:02:29.895Z,1.85
2022-11-02T13:05:07.037Z,3.83
2022-11-02T13:07:12.231Z,1.27
2022-11-02T13:09:53.027Z,1.25
2022-11-02T13:12:06.033Z,1.88
2022-11-02T13:14:15.391Z,3.42
2022-11-02T13:16:30.350Z,0.73
2022-11-02T13:18:43.921Z,1.17
2022-11-02T13:20:49.774Z,2.17
2022-11-02T13:25:34.674Z,1.35
2022-11-02T13:27:54.246Z,2.33
2022-11-02T13:29:58.349Z,2.40
2022-11-02T13:32:34.193Z,0.95
2022-11-02T13:34:42.186Z,1.52
2022-11-02T13:36:44.145Z,2.50
2022-11-02T13:38:51.256Z,1.08
2022-11-02T13:41:17.515Z,1.38
2022-11-02T13:43:24.868Z,2.40
2022-11-02T13:45:39.494Z,2.10
2022-11-02T13:48:03.159Z,3.08
2022-11-02T13:50:10.576Z,1.42
2022-11-02T13:52:16.690Z,5.85
2022-11-02T13:54:23.764Z,1.67
2022-11-02T13:56:27.488Z,0.55
2022-11-02T13:58:34.693Z,3.22
2022-11-02T14:00:44.627Z,2.78
2022-11-02T14:02:46.492Z,1.30
2022-11-02T14:04:48.725Z,3.28
2022-11-02T14:07:00.206Z,2.42
2022-11-02T14:09:08.334Z,1.10
2022-11-02T14:11:09.955Z,2.05
2022-11-02T14:13:17.420Z,4.13
2022-11-02T14:15:19.253Z,2.63
2022-11-02T14:17:21.035Z,1.13
2022-11-02T14:19:29.530Z,1.33
2022-11-02T14:21:42.464Z,1.85
2022-11-02T14:23:44.227Z,0.82
2022-11-02T14:25:45.905Z,1.70
2022-11-02T14:27:47.692Z,1.80
2022-11-02T14:29:54.462Z,2.17
2022-11-02T14:31:58.453Z,0.98
2022-11-02T14:34:26.619Z,0.85
2022-11-02T14:36:49.621Z,1.55
2022-11-02T14:39:20.781Z,2.20
2022-11-02T14:41:28.414Z,1.25
2022-11-02T14:43:44.807Z,1.95
2022-11-02T14:45:46.481Z,3.58
2022-11-02T14:47:48.304Z,1.23
2022-11-02T14:50:01.484Z,2.85
2022-11-02T14:52:21.476Z,1.33
2022-11-02T14:54:23.123Z,2.83
2022-11-02T14:56:25.690Z,2.75
2022-11-02T14:58:47.981Z,1.52
2022-11-02T15:00:50.316Z,1.90
2022-11-02T15:02:54.921Z,2.28
2022-11-02T15:04:59.131Z,1.55
2022-11-02T15:07:03.622Z,1.27
2022-11-02T15:09:05.231Z,4.32
2022-11-02T15:11:44.828Z,1.92
2022-11-02T15:13:47.738Z,3.05
2022-11-02T15:15:52.974Z,0.60
2022-11-02T15:17:59.677Z,2.65
2022-11-02T15:20:16.553Z,1.85
2022-11-02T15:22:36.767Z,1.40
2022-11-02T15:24:38.744Z,0.77
2022-11-02T15:26:48.302Z,1.00
2022-11-02T15:28:50.749Z,6.22
2022-11-02T15:30:56.847Z,1.40
2022-11-02T15:33:04.942Z,2.63
2022-11-02T15:35:16.569Z,1.35
2022-11-02T15:37:24.363Z,1.75
2022-11-02T15:39:26.273Z,3.80
2022-11-02T15:41:45.633Z,2.28
2022-11-02T15:44:06.144Z,3.88
2022-11-02T15:46:20.012Z,2.58
2022-11-02T15:48:40.329Z,2.97
2022-11-02T15:50:54.060Z,2.22
2022-11-02T15:53:21.659Z,2.83
2022-11-02T15:55:53.489Z,5.82
2022-11-02T15:58:03.498Z,6.43
2022-11-02T16:00:24.548Z,4.97
2022-11-02T16:02:32.706Z,4.05
2022-11-02T16:04:35.142Z,2.00
2022-11-02T16:06:41.803Z,3.15
2022-11-02T16:08:44.195Z,2.92
2022-11-02T16:10:48.026Z,6.75
2022-11-02T16:13:07.956Z,3.53
2022-11-02T16:15:14.283Z,11.05
2022-11-02T16:17:20.047Z,35.17
2022-11-02T16:19:22.383Z,10.82
2022-11-02T16:21:25.362Z,4.30
2022-11-02T16:23:29.439Z,6.05
2022-11-02T16:25:39.909Z,4.88
2022-11-02T16:27:42.939Z,2.65
2022-11-02T16:29:45.393Z,2.38
2022-11-02T16:31:47.115Z,1.25
2022-11-02T16:33:51.629Z,1.10
2022-11-02T16:35:53.318Z,1.85
2022-11-02T16:37:55.034Z,2.90
2022-11-02T16:39:56.831Z,4.95
2022-11-02T16:41:59.649Z,1.25
2022-11-02T16:44:07.810Z,3.03
2022-11-02T16:46:09.752Z,4.95
2022-11-02T16:48:17.321Z,4.65
2022-11-02T16:50:21.775Z,2.97
2022-11-02T16:52:28.118Z,4.72
2022-11-02T16:54:41.949Z,2.03
2022-11-02T16:56:48.028Z,2.78
2022-11-02T16:58:49.985Z,1.52
2022-11-02T17:01:00.021Z,2.72
2022-11-02T17:03:10.146Z,1.60
2022-11-02T17:05:25.993Z,2.20
2022-11-02T17:07:42.349Z,4.28
2022-11-02T17:09:44.108Z,2.97
2022-11-02T17:11:45.798Z,3.38
2022-11-02T17:13:55.564Z,2.88
2022-11-02T17:16:04.556Z,4.88
2022-11-02T17:18:09.642Z,10.98
2022-11-02T17:20:11.857Z,8.07
2022-11-02T17:22:27.348Z,2.30
2022-11-02T17:24:32.499Z,6.07
2022-11-02T17:26:37.499Z,7.40
2022-11-02T17:28:39.148Z,9.05
2022-11-02T17:30:42.545Z,7.97
2022-11-02T17:32:44.460Z,7.85
2022-11-02T17:34:54.168Z,5.72
2022-11-02T17:36:55.903Z,9.45
2022-11-02T17:39:02.331Z,7.15
2022-11-02T17:41:24.144Z,5.80
2022-11-02T17:43:25.865Z,6.88
2022-11-02T17:45:33.721Z,4.85
2022-11-02T17:47:35.334Z,5.25
2022-11-02T17:49:36.985Z,2.88
2022-11-02T17:51:39.876Z,6.55
2022-11-02T17:53:42.326Z,11.98
2022-11-02T17:55:43.960Z,2.65
2022-11-02T17:57:46.060Z,10.40
2022-11-02T17:59:47.773Z,2.08
2022-11-02T18:01:49.534Z,2.70
2022-11-02T18:03:51.254Z,6.63
2022-11-02T18:05:55.782Z,4.95
2022-11-02T18:08:00.592Z,3.75
2022-11-02T18:10:02.191Z,4.28
2022-11-02T18:12:04.063Z,4.53
2022-11-02T18:14:05.794Z,4.93
2022-11-02T18:16:07.910Z,3.70
2022-11-02T18:18:09.863Z,3.92
2022-11-02T18:20:13.236Z,3.15
2022-11-02T18:22:15.615Z,7.68
2022-11-02T18:24:17.194Z,6.35
2022-11-02T18:26:18.945Z,7.72
2022-11-02T18:28:20.572Z,9.43
2022-11-02T18:30:22.504Z,11.65
2022-11-02T18:32:24.394Z,15.52
2022-11-02T18:34:26.032Z,10.30
2022-11-02T18:36:27.740Z,9.65
2022-11-02T18:38:29.493Z,10.68
2022-11-02T18:40:35.184Z,11.43
2022-11-02T18:42:38.042Z,8.82
2022-11-02T18:44:39.734Z,5.75
2022-11-02T18:46:41.418Z,7.43
2022-11-02T18:48:43.065Z,6.28
2022-11-02T18:50:44.693Z,6.63
2022-11-02T18:52:49.218Z,5.00
2022-11-02T18:54:52.909Z,5.68
2022-11-02T18:56:55.050Z,9.07
2022-11-02T18:58:57.455Z,12.63
2022-11-02T19:01:09.001Z,7.07
2022-11-02T19:03:11.012Z,6.75
2022-11-02T19:05:30.929Z,7.70
2022-11-02T19:07:51.070Z,8.73
2022-11-02T19:09:52.644Z,10.65
2022-11-02T19:12:08.397Z,9.38
2022-11-02T19:14:10.130Z,5.72
2022-11-02T19:16:11.803Z,8.80
2022-11-02T19:18:13.398Z,8.95
2022-11-02T19:20:15.104Z,3.75
2022-11-02T19:22:22.188Z,6.60
2022-11-02T19:24:23.936Z,2.53
2022-11-02T19:28:27.233Z,4.22
2022-11-02T19:30:28.872Z,2.72
2022-11-02T19:32:30.560Z,3.42
2022-11-02T19:34:33.806Z,5.43
2022-11-02T19:36:35.780Z,3.85
2022-11-02T19:38:38.659Z,3.70
2022-11-02T19:40:40.287Z,6.82
2022-11-02T19:42:42.130Z,9.55
2022-11-02T19:44:43.733Z,6.47
2022-11-02T19:46:45.469Z,8.73
2022-11-02T19:48:47.484Z,8.35
2022-11-02T19:50:49.208Z,5.20
2022-11-02T19:52:50.833Z,9.52
2022-11-02T19:54:53.369Z,5.68
2022-11-02T19:56:55.161Z,8.07
2022-11-02T19:58:57.406Z,4.80
2022-11-02T20:01:06.421Z,6.55
2022-11-02T20:03:08.075Z,5.72
2022-11-02T20:05:11.279Z,4.05
2022-11-02T20:07:12.988Z,5.40
2022-11-02T20:09:19.485Z,7.55
2022-11-02T20:11:21.863Z,4.07
2022-11-02T20:13:23.486Z,5.40
2022-11-02T20:15:25.291Z,3.90
2022-11-02T20:17:35.248Z,4.22
2022-11-02T20:19:39.943Z,3.45
2022-11-02T20:21:43.434Z,2.97
2022-11-02T20:23:45.806Z,3.40
2022-11-02T20:25:48.175Z,4.63
2022-11-02T20:27:49.811Z,3.92
2022-11-02T20:29:52.049Z,4.22
2022-11-02T20:31:53.725Z,16.83
2022-11-02T20:33:55.781Z,18.00
2022-11-02T20:35:57.422Z,38.10
2022-11-02T20:37:58.985Z,51.22
2022-11-02T20:40:00.767Z,41.08
2022-11-02T20:42:02.470Z,18.67
2022-11-02T20:44:04.317Z,19.33
2022-11-02T20:48:31.667Z,11.23
2022-11-02T20:50:33.867Z,11.15
2022-11-02T20:52:35.561Z,4.45
2022-11-02T20:54:37.278Z,4.47
2022-11-02T20:56:39.402Z,4.38
2022-11-02T20:58:48.895Z,4.45
2022-11-02T21:00:53.861Z,3.83
2022-11-02T21:02:55.630Z,4.93
2022-11-02T21:04:57.392Z,3.88
2022-11-02T21:06:59.045Z,4.65
2022-11-02T21:09:00.873Z,5.97
2022-11-02T21:11:04.257Z,4.97
2022-11-02T21:13:24.887Z,4.70
2022-11-02T21:15:26.529Z,4.53
2022-11-02T21:17:28.249Z,5.85
2022-11-02T21:19:30.062Z,4.22
2022-11-02T21:21:31.684Z,4.40
2022-11-02T21:23:33.689Z,6.70
2022-11-02T21:25:36.235Z,5.07
2022-11-02T21:27:38.063Z,7.05
2022-11-02T21:29:39.681Z,7.40
2022-11-02T21:31:41.364Z,13.77
2022-11-02T21:33:44.503Z,15.82
2022-11-02T21:35:48.360Z,10.40
2022-11-02T21:37:50.305Z,10.85
2022-11-02T21:39:51.970Z,8.15
2022-11-02T21:41:53.586Z,7.32
2022-11-02T21:43:55.964Z,7.72
2022-11-02T21:45:59.712Z,7.30
2022-11-02T21:48:01.287Z,6.70
2022-11-02T21:50:05.217Z,6.57
2022-11-02T21:52:07.666Z,8.27
2022-11-02T21:54:09.381Z,6.40
2022-11-02T21:56:19.190Z,7.20
2022-11-02T21:58:20.862Z,6.38
2022-11-02T22:00:22.527Z,7.00
2022-11-02T22:02:24.708Z,13.18
2022-11-02T22:04:31.823Z,8.38
2022-11-02T22:06:34.095Z,8.02
2022-11-02T22:08:38.582Z,8.32
2022-11-02T22:10:40.433Z,8.00
2022-11-02T22:13:00.628Z,6.47
2022-11-02T22:15:02.310Z,8.15
2022-11-02T22:17:16.341Z,6.82
2022-11-02T22:19:24.001Z,7.32
2022-11-02T22:21:28.227Z,7.88
2022-11-02T22:23:29.887Z,6.53
2022-11-02T22:25:31.562Z,6.65
2022-11-02T22:27:33.173Z,8.25
2022-11-02T22:29:35.944Z,8.48
2022-11-02T22:31:39.776Z,8.10
2022-11-02T22:33:45.599Z,9.45
2022-11-02T22:35:47.379Z,11.85
2022-11-02T22:38:07.336Z,6.85
2022-11-02T22:40:09.632Z,6.32
2022-11-02T22:42:11.314Z,7.43
2022-11-02T22:44:17.113Z,8.18
2022-11-02T22:46:19.107Z,8.18
2022-11-02T22:48:20.750Z,7.93
2022-11-02T22:50:25.141Z,8.88
2022-11-02T22:52:29.411Z,6.15
2022-11-02T22:54:31.046Z,6.93
2022-11-02T22:56:33.372Z,6.85
2022-11-02T22:58:35.998Z,6.85
2022-11-02T23:00:38.951Z,8.93
2022-11-02T23:02:40.611Z,5.47
2022-11-02T23:04:42.225Z,10.38
2022-11-02T23:06:43.853Z,8.55
2022-11-02T23:08:46.135Z,6.25
2022-11-02T23:11:06.487Z,6.72
2022-11-02T23:13:08.459Z,6.15
2022-11-02T23:15:10.439Z,5.85
2022-11-02T23:17:12.042Z,6.95
2022-11-02T23:19:30.048Z,6.43
2022-11-02T23:21:31.932Z,9.05
2022-11-02T23:23:52.004Z,5.82
2022-11-02T23:25:57.567Z,5.30
2022-11-02T23:28:19.221Z,5.78
2022-11-02T23:30:39.360Z,6.60
2022-11-02T23:32:41.176Z,9.48
2022-11-02T23:35:02.827Z,7.40
2022-11-02T23:37:07.235Z,7.32
2022-11-02T23:39:44.341Z,9.20
2022-11-02T23:41:45.991Z,8.88
2022-11-02T23:43:47.964Z,7.20
2022-11-02T23:45:49.596Z,6.25
2022-11-02T23:47:57.393Z,7.35
2022-11-02T23:49:59.351Z,6.45
2022-11-02T23:52:19.624Z,7.68
2022-11-02T23:54:39.837Z,6.45
2022-11-02T23:56:44.314Z,8.70
2022-11-02T23:58:46.567Z,6.50
